createdAt,value
2023-01-11T00:04:06.587Z,2.35
2023-01-11T00:09:08.876Z,3.58
2023-01-11T00:14:11.011Z,2.35
2023-01-11T00:19:13.259Z,2.12
2023-01-11T00:24:16.208Z,1.62
2023-01-11T00:29:18.398Z,3.00
2023-01-11T00:34:21.104Z,2.30
2023-01-11T00:44:44.195Z,2.35
2023-01-11T00:49:46.334Z,1.30
2023-01-11T00:54:48.748Z,1.73
2023-01-11T00:59:50.960Z,1.83
2023-01-11T01:04:53.504Z,1.67
2023-01-11T01:09:56.005Z,1.87
2023-01-11T01:14:58.110Z,1.52
2023-01-11T01:20:00.248Z,1.65
2023-01-11T01:25:02.359Z,1.45
2023-01-11T01:30:06.288Z,1.60
2023-01-11T01:35:09.198Z,1.60
2023-01-11T01:40:12.186Z,2.20
2023-01-11T01:45:24.258Z,2.10
2023-01-11T01:50:32.801Z,1.60
2023-01-11T01:55:38.858Z,1.75
2023-01-11T02:00:44.318Z,1.20
2023-01-11T02:05:47.602Z,2.65
2023-01-11T02:10:50.840Z,1.87
2023-01-11T02:16:07.891Z,1.30
2023-01-11T02:21:26.041Z,1.65
2023-01-11T02:26:31.189Z,1.15
2023-01-11T02:32:17.296Z,1.30
2023-01-11T02:37:42.730Z,1.50
2023-01-11T02:43:11.572Z,1.25
2023-01-11T02:48:35.664Z,1.50
2023-01-11T02:53:55.413Z,0.80
2023-01-11T02:58:58.561Z,0.85
2023-01-11T03:04:00.664Z,1.20
2023-01-11T03:09:30.813Z,0.85
2023-01-11T03:14:46.844Z,1.10
2023-01-11T03:19:54.662Z,0.60
2023-01-11T03:25:24.622Z,0.95
2023-01-11T03:30:32.149Z,1.10
2023-01-11T03:35:48.450Z,0.73
2023-01-11T03:41:01.197Z,0.57
2023-01-11T03:46:03.237Z,0.75
2023-01-11T03:51:10.161Z,0.88
2023-01-11T03:56:16.418Z,2.03
2023-01-11T04:01:19.072Z,0.80
2023-01-11T04:11:23.919Z,0.83
2023-01-11T04:16:26.543Z,0.70
2023-01-11T04:26:31.435Z,1.03
2023-01-11T04:31:33.596Z,1.92
2023-01-11T04:36:35.736Z,0.60
2023-01-11T04:41:57.330Z,0.95
2023-01-11T04:46:59.466Z,0.90
2023-01-11T04:52:01.567Z,1.27
2023-01-11T04:57:03.860Z,1.45
2023-01-11T05:02:06.825Z,0.70
2023-01-11T05:07:09.885Z,0.60
2023-01-11T05:12:12.454Z,0.73
2023-01-11T05:22:17.201Z,0.40
2023-01-11T05:27:19.284Z,1.08
2023-01-11T05:32:21.364Z,0.80
2023-01-11T05:37:23.492Z,1.00
2023-01-11T05:42:25.612Z,1.15
2023-01-11T05:47:28.165Z,1.00
2023-01-11T05:52:30.527Z,0.62
2023-01-11T05:57:33.083Z,0.88
2023-01-11T06:02:35.756Z,0.98
2023-01-11T06:07:38.354Z,0.70
2023-01-11T06:12:40.492Z,1.02
2023-01-11T06:17:42.653Z,0.80
2023-01-11T06:22:44.753Z,0.82
2023-01-11T06:27:47.305Z,1.12
2023-01-11T06:32:49.815Z,0.62
2023-01-11T06:37:52.004Z,1.05
2023-01-11T06:42:54.532Z,0.98
2023-01-11T06:47:56.965Z,0.93
2023-01-11T06:53:01.952Z,0.60
2023-01-11T06:58:04.217Z,0.50
2023-01-11T07:03:06.889Z,0.77
2023-01-11T07:13:12.108Z,1.20
2023-01-11T07:18:14.768Z,0.90
2023-01-11T07:28:19.588Z,0.50
2023-01-11T07:33:22.589Z,0.50
2023-01-11T07:38:25.181Z,0.85
2023-01-11T07:43:27.416Z,1.27
2023-01-11T07:48:30.811Z,1.02
2023-01-11T07:53:33.424Z,1.30
2023-01-11T08:03:37.802Z,1.45
2023-01-11T08:08:40.834Z,1.02
2023-01-11T08:14:01.457Z,1.10
2023-01-11T08:19:04.397Z,0.70
2023-01-11T08:24:06.760Z,1.00
2023-01-11T08:29:09.975Z,1.10
2023-01-11T08:34:12.109Z,1.05
2023-01-11T08:39:14.589Z,0.90
2023-01-11T08:44:29.013Z,0.60
2023-01-11T08:49:35.378Z,0.60
2023-01-11T08:54:37.585Z,0.85
2023-01-11T08:59:39.766Z,0.40
2023-01-11T09:04:42.254Z,0.70
2023-01-11T09:09:44.417Z,0.73
2023-01-11T09:14:46.610Z,0.80
2023-01-11T09:19:48.779Z,1.87
2023-01-11T09:24:51.364Z,1.45
2023-01-11T09:34:58.262Z,3.65
2023-01-11T09:40:01.737Z,2.70
2023-01-11T09:45:09.340Z,3.30
2023-01-11T09:50:15.019Z,4.13
2023-01-11T09:55:23.118Z,2.35
2023-01-11T10:00:36.113Z,1.40
2023-01-11T10:06:06.878Z,1.12
2023-01-11T10:18:25.527Z,0.70
2023-01-11T10:22:58.259Z,1.00
2023-01-11T10:28:04.614Z,0.50
2023-01-11T10:33:25.303Z,0.53
2023-01-11T10:38:49.859Z,0.73
2023-01-11T10:44:18.979Z,0.80
2023-01-11T10:49:41.121Z,0.90
2023-01-11T10:54:47.413Z,1.00
2023-01-11T11:00:09.256Z,1.40
2023-01-11T11:05:30.271Z,0.93
2023-01-11T11:10:51.226Z,1.00
2023-01-11T11:16:10.443Z,0.93
2023-01-11T11:21:36.973Z,0.73
2023-01-11T11:26:53.806Z,1.00
2023-01-11T11:31:58.719Z,0.50
2023-01-11T11:37:01.467Z,0.80
2023-01-11T11:47:17.499Z,0.67
2023-01-11T11:52:19.904Z,0.40
2023-01-11T11:57:33.964Z,0.40
2023-01-11T12:02:38.729Z,0.20
2023-01-11T12:07:54.650Z,0.10
2023-01-11T12:13:03.238Z,0.10
2023-01-11T12:18:26.999Z,0.30
2023-01-11T12:23:29.576Z,0.40
2023-01-11T12:28:37.160Z,0.88
2023-01-11T12:33:58.725Z,0.70
2023-01-11T12:39:05.033Z,0.20
2023-01-11T12:44:12.126Z,0.35
2023-01-11T12:49:30.969Z,0.15
2023-01-11T12:55:09.706Z,0.20
2023-01-11T13:00:14.735Z,0.65
2023-01-11T13:05:26.654Z,0.10
2023-01-11T13:10:31.826Z,0.32
2023-01-11T13:15:43.982Z,0.50
2023-01-11T13:21:25.936Z,0.30
2023-01-11T13:26:39.009Z,0.30
2023-01-11T13:36:48.847Z,0.20
2023-01-11T13:41:53.771Z,0.62
2023-01-11T13:47:01.743Z,0.52
2023-01-11T13:52:12.258Z,0.57
2023-01-11T13:57:30.355Z,0.90
2023-01-11T14:02:51.015Z,0.53
2023-01-11T14:08:00.880Z,0.60
2023-01-11T14:13:50.876Z,0.43
2023-01-11T14:19:31.623Z,0.75
2023-01-11T14:24:37.072Z,1.43
2023-01-11T14:29:48.154Z,1.20
2023-01-11T14:35:11.914Z,1.30
2023-01-11T14:40:34.268Z,1.10
2023-01-11T14:45:56.386Z,1.67
2023-01-11T14:51:17.114Z,1.50
2023-01-11T14:56:41.980Z,1.40
2023-01-11T15:02:03.119Z,1.87
2023-01-11T15:07:41.874Z,1.00
2023-01-11T15:12:44.056Z,1.03
2023-01-11T15:18:12.461Z,1.50
2023-01-11T15:23:17.476Z,1.50
2023-01-11T15:28:38.933Z,1.23
2023-01-11T15:33:48.724Z,2.00
2023-01-11T15:38:56.695Z,1.27
2023-01-11T15:44:20.350Z,1.93
2023-01-11T15:55:28.596Z,2.07
2023-01-11T16:00:36.165Z,1.95
2023-01-11T16:05:44.042Z,1.57
2023-01-11T16:11:08.263Z,2.63
2023-01-11T16:16:28.982Z,1.53
2023-01-11T16:21:36.472Z,2.00
2023-01-11T16:26:41.003Z,2.00
2023-01-11T16:32:02.884Z,3.05
2023-01-11T16:37:22.974Z,1.75
2023-01-11T16:42:29.708Z,2.80
2023-01-11T16:47:31.879Z,2.50
2023-01-11T16:52:38.815Z,3.08
2023-01-11T16:57:45.532Z,2.55
2023-01-11T17:02:50.064Z,2.65
2023-01-11T17:07:52.162Z,2.15
2023-01-11T17:13:33.958Z,2.28
2023-01-11T17:18:41.063Z,2.10
2023-01-11T17:23:45.622Z,2.20
2023-01-11T17:28:50.116Z,2.50
2023-01-11T17:34:25.759Z,1.65
2023-01-11T17:39:34.534Z,2.05
2023-01-11T17:44:55.404Z,2.40
2023-01-11T17:50:01.035Z,1.53
2023-01-11T17:55:19.319Z,1.40
2023-01-11T18:00:28.026Z,5.17
2023-01-11T18:05:30.540Z,4.00
2023-01-11T18:10:36.196Z,2.87
2023-01-11T18:15:38.431Z,3.75
2023-01-11T18:20:41.112Z,4.80
2023-01-11T18:30:54.413Z,3.10
2023-01-11T18:35:59.746Z,2.05
2023-01-11T18:41:27.164Z,2.47
2023-01-11T18:46:29.280Z,2.25
2023-01-11T18:51:40.170Z,3.72
2023-01-11T18:56:42.675Z,2.83
2023-01-11T19:01:56.629Z,2.85
2023-01-11T19:07:06.908Z,1.60
2023-01-11T19:12:09.024Z,2.70
2023-01-11T19:17:12.307Z,2.10
2023-01-11T19:22:14.654Z,2.80
2023-01-11T19:27:16.921Z,2.30
2023-01-11T19:32:23.637Z,2.75
2023-01-11T19:37:27.633Z,1.80
2023-01-11T19:42:30.079Z,1.20
2023-01-11T19:47:32.247Z,1.48
2023-01-11T19:52:34.344Z,3.37
2023-01-11T19:57:36.716Z,1.92
2023-01-11T20:02:39.261Z,2.25
2023-01-11T20:12:43.501Z,2.50
2023-01-11T20:17:45.617Z,2.05
2023-01-11T20:22:47.760Z,2.45
2023-01-11T20:27:49.841Z,2.37
2023-01-11T20:32:51.968Z,1.85
2023-01-11T20:37:54.076Z,1.27
2023-01-11T20:42:56.143Z,2.50
2023-01-11T20:47:59.327Z,1.40
2023-01-11T20:53:04.081Z,2.33
2023-01-11T20:58:06.167Z,4.60
2023-01-11T21:03:08.752Z,3.80
2023-01-11T21:13:13.421Z,2.05
2023-01-11T21:18:15.946Z,2.05
2023-01-11T21:28:20.304Z,2.30
2023-01-11T21:33:22.456Z,2.75
2023-01-11T21:38:24.601Z,2.08
2023-01-11T21:43:27.313Z,1.87
2023-01-11T21:48:29.882Z,2.00
2023-01-11T21:53:33.046Z,3.03
2023-01-11T21:58:36.018Z,2.45
2023-01-11T22:03:38.311Z,1.85
2023-01-11T22:08:41.569Z,1.75
2023-01-11T22:13:43.960Z,2.73
2023-01-11T22:18:46.379Z,1.60
2023-01-11T22:23:52.429Z,2.72
2023-01-11T22:29:15.034Z,2.75
2023-01-11T22:34:18.533Z,2.30
2023-01-11T22:39:21.490Z,3.05
2023-01-11T22:44:23.597Z,2.05
2023-01-11T22:49:26.508Z,2.35
2023-01-11T22:54:29.087Z,2.15
2023-01-11T22:59:31.299Z,2.45
2023-01-11T23:04:33.879Z,2.28
2023-01-11T23:09:36.342Z,3.25
2023-01-11T23:14:38.821Z,3.00
2023-01-11T23:19:41.674Z,1.35
2023-01-11T23:24:43.854Z,1.80
2023-01-11T23:29:46.005Z,2.33
2023-01-11T23:34:48.153Z,2.08
2023-01-11T23:39:50.674Z,2.35
2023-01-11T23:49:57.652Z,2.75
2023-01-11T23:55:00.183Z,3.00
